Time;durP1;ratioP1;P1;durP2;ratioP2;P2;SDS_P1;SDS_P2;PMS_P1;PMS_P2;Temp;Humidity;BMP_temperature;BMP_pressure;BME280_temperature;BME280_humidity;BME280_pressure;Samples;Min_cycle;Max_cycle;Signal;HPM_P1;HPM_P2
2021/12/05 00:21:40;;;;;;;39.50;12.00;;;;;;;-145.18;100.00;60484.78;5008408;28;20267;-71
2021/12/05 00:24:14;;;;;;;34.03;10.60;;;;;;;-145.18;100.00;60484.78;5008810;28;20814;-71
2021/12/05 00:26:47;;;;;;;35.73;10.77;;;;;;;-145.18;100.00;60484.78;5008317;28;20614;-71
2021/12/05 00:29:21;;;;;;;34.40;11.00;;;;;;;-145.18;100.00;60484.78;5003387;28;20358;-72
2021/12/05 00:50:05;;;;;;;31.10;10.93;;;;;;;-145.18;100.00;60484.78;5052978;28;20274;-72
2021/12/05 00:57:58;;;;;;;34.10;12.27;;;;;;;-145.18;100.00;60484.78;5056457;28;20336;-71
2021/12/05 01:08:47;;;;;;;36.83;11.00;;;;;;;-145.18;100.00;60484.78;5049989;28;20325;-71
2021/12/05 01:11:42;;;;;;;40.30;12.13;;;;;;;-145.18;100.00;60484.78;5052945;28;20286;-71
2021/12/05 01:16:37;;;;;;;36.07;11.00;;;;;;;-145.18;100.00;60484.78;5056828;28;20285;-71
2021/12/05 01:19:07;;;;;;;36.30;10.90;;;;;;;-145.18;100.00;60484.78;5054157;28;20274;-70
2021/12/05 01:21:33;;;;;;;28.63;9.83;;;;;;;-145.18;100.00;60484.78;5054592;28;20679;-70
2021/12/05 01:24:19;;;;;;;33.77;11.47;;;;;;;-145.18;100.00;60484.78;5057039;28;20294;-70
2021/12/05 01:32:24;;;;;;;27.07;10.03;;;;;;;-145.18;100.00;60484.78;4954817;28;20791;-70
2021/12/05 01:37:39;;;;;;;22.93;9.17;;;;;;;-145.18;100.00;60484.78;4957758;28;20372;-70
2021/12/05 02:09:42;;;;;;;18.83;8.10;;;;;;;-145.18;100.00;60484.78;4951030;28;20796;-70
2021/12/05 02:15:27;;;;;;;22.13;7.57;;;;;;;-145.18;100.00;60484.78;4953698;28;20283;-69
2021/12/05 02:34:21;;;;;;;26.33;9.57;;;;;;;-145.18;100.00;60484.78;5049846;28;20639;-71
2021/12/05 02:42:09;;;;;;;23.37;10.10;;;;;;;-145.18;100.00;60484.78;5053675;28;20479;-72
2021/12/05 02:44:35;;;;;;;23.50;9.85;;;;;;;-145.18;100.00;60484.78;5056443;28;20673;-71
2021/12/05 02:47:07;;;;;;;29.20;10.10;;;;;;;-145.18;100.00;60484.78;5054351;28;20024;-71
2021/12/05 02:49:36;;;;;;;27.92;9.73;;;;;;;-145.18;100.00;60484.78;5054121;28;20095;-71
2021/12/05 02:52:07;;;;;;;29.10;10.10;;;;;;;-145.18;100.00;60484.78;5051577;28;20043;-71
2021/12/05 02:54:38;;;;;;;24.40;9.47;;;;;;;-145.18;100.00;60484.78;5044359;28;20440;-71
2021/12/05 02:57:06;;;;;;;27.73;9.80;;;;;;;-145.18;100.00;60484.78;5053041;28;20456;-71
2021/12/05 03:02:10;;;;;;;36.03;11.93;;;;;;;-145.18;100.00;60484.78;5056294;28;20300;-71
2021/12/05 03:04:40;;;;;;;38.00;11.57;;;;;;;-145.18;100.00;60484.78;5048694;28;20386;-71
2021/12/05 03:07:08;;;;;;;31.17;10.17;;;;;;;-145.18;100.00;60484.78;5047187;28;20351;-71
2021/12/05 03:09:34;;;;;;;31.77;11.37;;;;;;;-145.18;100.00;60484.78;5050546;28;20067;-71
2021/12/05 03:12:00;;;;;;;25.37;10.17;;;;;;;-145.18;100.00;60484.78;5049548;28;20321;-71
2021/12/05 03:14:26;;;;;;;27.07;10.07;;;;;;;-145.18;100.00;60484.78;5053854;28;20268;-70
2021/12/05 03:16:52;;;;;;;27.27;11.57;;;;;;;-145.18;100.00;60484.78;5052363;28;20024;-70
2021/12/05 03:19:18;;;;;;;25.23;10.67;;;;;;;-145.18;100.00;60484.78;5051698;28;20286;-70
2021/12/05 03:21:45;;;;;;;27.03;10.27;;;;;;;-145.18;100.00;60484.78;5057866;28;20028;-71
2021/12/05 03:24:15;;;;;;;29.10;12.17;;;;;;;-145.18;100.00;60484.78;5058793;28;20795;-70
2021/12/05 03:26:43;;;;;;;28.87;9.63;;;;;;;-145.18;100.00;60484.78;5052497;28;20028;-70
2021/12/05 03:29:14;;;;;;;34.27;12.07;;;;;;;-145.18;100.00;60484.78;5055617;28;20278;-70
2021/12/05 03:31:40;;;;;;;31.20;10.93;;;;;;;-145.18;100.00;60484.78;5057992;28;20509;-70
2021/12/05 03:34:08;;;;;;;26.13;11.00;;;;;;;-145.18;100.00;60484.78;5058101;28;20048;-70
2021/12/05 03:36:36;;;;;;;22.37;9.90;;;;;;;-145.18;100.00;60484.78;5054634;28;20029;-70
2021/12/05 03:39:04;;;;;;;27.43;11.00;;;;;;;-145.18;100.00;60484.78;5054626;28;20168;-70
2021/12/05 03:41:30;;;;;;;27.43;10.67;;;;;;;-145.18;100.00;60484.78;5060313;28;20283;-70
2021/12/05 03:43:57;;;;;;;32.03;12.67;;;;;;;-145.18;100.00;60484.78;5051924;28;20365;-70
2021/12/05 03:46:24;;;;;;;27.67;10.80;;;;;;;-145.18;100.00;60484.78;5049264;28;20322;-71
2021/12/05 03:48:54;;;;;;;31.20;11.63;;;;;;;-145.18;100.00;60484.78;5047135;28;20373;-71
2021/12/05 03:51:23;;;;;;;27.87;10.40;;;;;;;-145.18;100.00;60484.78;5055920;28;20064;-71
2021/12/05 03:53:51;;;;;;;31.20;11.27;;;;;;;-145.18;100.00;60484.78;5049879;28;20268;-70
2021/12/05 03:56:17;;;;;;;28.27;10.67;;;;;;;-145.18;100.00;60484.78;5051597;28;20530;-71
2021/12/05 03:58:44;;;;;;;23.20;8.80;;;;;;;-145.18;100.00;60484.78;5056595;28;20063;-70
2021/12/05 04:01:12;;;;;;;28.10;10.67;;;;;;;-145.18;100.00;60484.78;5056199;28;20789;-70
2021/12/05 04:03:38;;;;;;;26.80;8.83;;;;;;;-145.18;100.00;60484.78;5053806;28;20592;-70
2021/12/05 04:06:06;;;;;;;24.53;10.83;;;;;;;-145.18;100.00;60484.78;5053731;28;20678;-70
2021/12/05 04:08:32;;;;;;;22.73;9.40;;;;;;;-145.18;100.00;60484.78;5058003;28;20029;-70
2021/12/05 04:11:03;;;;;;;26.93;10.30;;;;;;;-145.18;100.00;60484.78;5048442;28;20397;-70
2021/12/05 04:13:29;;;;;;;23.37;9.73;;;;;;;-145.18;100.00;60484.78;5052623;28;20040;-70
2021/12/05 04:15:56;;;;;;;22.30;8.47;;;;;;;-145.18;100.00;60484.78;5056470;28;20271;-70
2021/12/05 04:18:21;;;;;;;28.13;9.23;;;;;;;-145.18;100.00;60484.78;5049241;28;20029;-70
2021/12/05 04:20:48;;;;;;;18.90;8.17;;;;;;;-145.18;100.00;60484.78;5053996;28;20400;-70
2021/12/05 04:23:15;;;;;;;20.23;8.10;;;;;;;-145.18;100.00;60484.78;5056702;28;20029;-70
2021/12/05 04:25:40;;;;;;;22.10;8.80;;;;;;;-145.18;100.00;60484.78;5059235;28;20271;-70
2021/12/05 04:28:09;;;;;;;28.43;9.73;;;;;;;-145.18;100.00;60484.78;5054712;28;20081;-70
2021/12/05 04:30:36;;;;;;;25.63;9.37;;;;;;;-145.18;100.00;60484.78;5052837;28;20032;-70
2021/12/05 04:33:01;;;;;;;22.90;8.50;;;;;;;-145.18;100.00;60484.78;5053369;28;20274;-70
2021/12/05 04:35:27;;;;;;;31.83;8.47;;;;;;;-145.18;100.00;60484.78;5048898;28;20682;-70
2021/12/05 04:37:52;;;;;;;25.20;8.43;;;;;;;-145.18;100.00;60484.78;5052369;28;20028;-70
2021/12/05 04:40:18;;;;;;;27.53;8.33;;;;;;;-145.18;100.00;60484.78;5050575;28;20396;-70
2021/12/05 04:42:44;;;;;;;20.33;8.50;;;;;;;-145.18;100.00;60484.78;5051243;28;20488;-71
2021/12/05 04:45:22;;;;;;;19.50;6.93;;;;;;;-145.18;100.00;60484.78;5057318;28;20033;-70
2021/12/05 04:47:48;;;;;;;22.07;8.10;;;;;;;-145.18;100.00;60484.78;5058633;28;20025;-70
2021/12/05 04:50:16;;;;;;;18.57;7.00;;;;;;;-145.18;100.00;60484.78;5052608;28;20278;-71
2021/12/05 04:52:42;;;;;;;22.60;7.27;;;;;;;-145.18;100.00;60484.78;5057096;28;20651;-71
2021/12/05 04:55:08;;;;;;;17.90;6.77;;;;;;;-145.18;100.00;60484.78;5056958;28;20271;-71
2021/12/05 04:57:34;;;;;;;17.90;5.87;;;;;;;-145.18;100.00;60484.78;5052418;28;20302;-71
2021/12/05 04:59:59;;;;;;;27.97;7.67;;;;;;;-145.18;100.00;60484.78;5057049;28;20289;-71
2021/12/05 05:02:25;;;;;;;17.83;6.07;;;;;;;-145.18;100.00;60484.78;5055456;28;20259;-71
2021/12/05 05:04:51;;;;;;;14.23;4.70;;;;;;;-145.18;100.00;60484.78;5057303;28;20116;-70
2021/12/05 05:07:25;;;;;;;13.23;5.23;;;;;;;-145.18;100.00;60484.78;5055004;28;20262;-71
2021/12/05 05:09:57;;;;;;;18.17;5.93;;;;;;;-145.18;100.00;60484.78;5056597;28;20324;-71
2021/12/05 05:12:23;;;;;;;17.50;5.72;;;;;;;-145.18;100.00;60484.78;5051196;28;20644;-71
2021/12/05 05:14:49;;;;;;;13.70;4.53;;;;;;;-145.18;100.00;60484.78;5051880;28;20194;-71
2021/12/05 05:17:15;;;;;;;14.57;4.50;;;;;;;-145.18;100.00;60484.78;5049440;28;20333;-71
2021/12/05 05:19:47;;;;;;;16.07;5.17;;;;;;;-145.18;100.00;60484.78;5045543;28;20655;-71
2021/12/05 05:22:29;;;;;;;17.65;5.25;;;;;;;-145.18;100.00;60484.78;5055916;28;20052;-71
2021/12/05 05:46:26;;;;;;;20.80;5.40;;;;;;;-145.18;100.00;60484.78;5051656;28;20557;-71
2021/12/05 05:49:14;;;;;;;17.13;5.80;;;;;;;-145.18;100.00;60484.78;5053297;28;20612;-71
2021/12/05 05:51:37;;;;;;;12.83;5.07;;;;;;;-145.18;100.00;60484.78;5050300;28;20283;-71
2021/12/05 05:54:03;;;;;;;22.30;6.33;;;;;;;-145.18;100.00;60484.78;5049664;28;20271;-71
2021/12/05 05:56:30;;;;;;;19.57;5.77;;;;;;;-145.18;100.00;60484.78;5047964;28;20265;-71
2021/12/05 05:59:03;;;;;;;18.27;5.97;;;;;;;-145.18;100.00;60484.78;5056746;28;20070;-71
2021/12/05 06:04:01;;;;;;;21.20;6.47;;;;;;;-145.18;100.00;60484.78;5046339;28;20298;-71
2021/12/05 06:06:27;;;;;;;21.77;6.40;;;;;;;-145.18;100.00;60484.78;5050111;28;20558;-71
2021/12/05 06:08:53;;;;;;;20.60;6.33;;;;;;;-145.18;100.00;60484.78;5054440;28;20579;-71
2021/12/05 06:11:18;;;;;;;21.40;6.40;;;;;;;-145.18;100.00;60484.78;5056892;28;20289;-71
2021/12/05 06:13:45;;;;;;;20.40;6.37;;;;;;;-145.18;100.00;60484.78;5053086;28;20106;-71
2021/12/05 06:16:13;;;;;;;19.60;6.13;;;;;;;-145.18;100.00;60484.78;5050133;28;20204;-71
2021/12/05 06:18:39;;;;;;;19.10;6.27;;;;;;;-145.18;100.00;60484.78;5053675;28;20631;-71
2021/12/05 06:21:07;;;;;;;20.17;6.63;;;;;;;-145.18;100.00;60484.78;5051025;28;20278;-71
2021/12/05 06:23:33;;;;;;;22.57;6.77;;;;;;;-145.18;100.00;60484.78;5051044;28;20093;-71
2021/12/05 06:26:00;;;;;;;23.70;7.27;;;;;;;-145.18;100.00;60484.78;5056760;28;20287;-71
2021/12/05 06:28:56;;;;;;;17.73;6.43;;;;;;;-145.18;100.00;60484.78;5051883;28;20274;-71
2021/12/05 06:39:47;;;;;;;18.13;7.60;;;;;;;-145.18;100.00;60484.78;5010955;28;20627;-71
2021/12/05 06:42:34;;;;;;;17.10;6.90;;;;;;;-145.18;100.00;60484.78;5007830;28;20696;-71
2021/12/05 06:47:44;;;;;;;18.20;8.27;;;;;;;-145.18;100.00;60484.78;5012417;28;20321;-71
2021/12/05 06:50:10;;;;;;;21.17;7.40;;;;;;;-145.18;100.00;60484.78;5012247;28;20291;-71
2021/12/05 06:52:35;;;;;;;20.97;8.40;;;;;;;-145.18;100.00;60484.78;5017330;28;20041;-71
2021/12/05 06:55:01;;;;;;;20.03;7.53;;;;;;;-145.18;100.00;60484.78;5022981;28;20033;-71
2021/12/05 06:57:27;;;;;;;27.90;8.00;;;;;;;-145.18;100.00;60484.78;5021124;28;20505;-71
2021/12/05 06:59:52;;;;;;;27.13;8.53;;;;;;;-145.18;100.00;60484.78;5018378;28;20068;-71
2021/12/05 07:02:19;;;;;;;25.20;8.33;;;;;;;-145.18;100.00;60484.78;5020196;28;20221;-71
2021/12/05 07:05:02;;;;;;;24.77;8.03;;;;;;;-145.18;100.00;60484.78;5035835;28;20052;-71
2021/12/05 07:07:31;;;;;;;21.33;8.75;;;;;;;-145.18;100.00;60484.78;5056748;28;20766;-71
2021/12/05 07:09:56;;;;;;;25.20;8.33;;;;;;;-145.18;100.00;60484.78;5054378;28;20036;-71
2021/12/05 07:15:45;;;;;;;26.23;9.53;;;;;;;-145.18;100.00;60484.78;4988411;28;20038;-71
2021/12/05 07:23:49;;;;;;;25.20;9.67;;;;;;;-145.18;100.00;60484.78;4987273;28;20359;-71
2021/12/05 07:26:10;;;;;;;25.53;10.43;;;;;;;-145.18;100.00;60484.78;4991823;28;20544;-71
2021/12/05 07:42:23;;;;;;;31.37;10.63;;;;;;;-145.18;100.00;60484.78;4993321;28;20444;-70
2021/12/05 07:44:52;;;;;;;33.63;11.10;;;;;;;-145.18;100.00;60484.78;4994433;28;20324;-70
2021/12/05 07:47:20;;;;;;;24.47;9.87;;;;;;;-145.18;100.00;60484.78;4989906;28;20290;-70
2021/12/05 07:49:48;;;;;;;27.23;8.77;;;;;;;-145.18;100.00;60484.78;4993093;28;20323;-70
2021/12/05 07:52:18;;;;;;;28.63;9.17;;;;;;;-145.18;100.00;60484.78;5030781;28;20279;-70
2021/12/05 07:54:47;;;;;;;28.40;10.27;;;;;;;-145.18;100.00;60484.78;5050937;28;20274;-70
2021/12/05 08:16:10;;;;;;;24.23;8.97;;;;;;;-145.18;100.00;60484.78;5053268;28;21020;-70
2021/12/05 08:18:35;;;;;;;21.60;8.83;;;;;;;-145.18;100.00;60484.78;5054277;28;20612;-70
2021/12/05 08:21:03;;;;;;;28.07;8.83;;;;;;;-145.18;100.00;60484.78;5054464;28;20896;-70
2021/12/05 08:23:28;;;;;;;23.70;8.50;;;;;;;-145.18;100.00;60484.78;5054954;28;20499;-70
2021/12/05 08:26:04;;;;;;;28.20;9.00;;;;;;;-145.18;100.00;60484.78;5046974;28;20263;-70
2021/12/05 10:02:34;;;;;;;21.40;7.43;;;;;;;-145.18;100.00;60484.78;4983439;28;20185;-69
2021/12/05 10:10:17;;;;;;;25.70;8.97;;;;;;;-145.18;100.00;60484.78;4985163;28;20093;-69
2021/12/05 10:13:10;;;;;;;20.97;7.30;;;;;;;-145.18;100.00;60484.78;4963889;28;20117;-69
2021/12/05 10:37:24;;;;;;;25.27;7.67;;;;;;;-145.18;100.00;60484.78;5051625;28;20130;-69
2021/12/05 10:40:07;;;;;;;22.50;7.00;;;;;;;-145.18;100.00;60484.78;5050016;28;20123;-69
2021/12/05 10:42:48;;;;;;;18.53;7.80;;;;;;;-145.18;100.00;60484.78;5053213;28;20433;-69
2021/12/05 10:45:19;;;;;;;21.43;7.83;;;;;;;-145.18;100.00;60484.78;5052422;28;20036;-70
2021/12/05 10:47:52;;;;;;;33.50;8.35;;;;;;;-145.18;100.00;60484.78;5047493;28;20125;-70
2021/12/05 10:50:42;;;;;;;20.27;7.23;;;;;;;-145.18;100.00;60484.78;5049346;28;20068;-70
2021/12/05 10:53:22;;;;;;;18.63;7.63;;;;;;;-145.18;100.00;60484.78;5051561;28;20407;-69
2021/12/05 10:56:16;;;;;;;22.33;8.77;;;;;;;-145.18;100.00;60484.78;5050728;28;20094;-69
2021/12/05 10:59:08;;;;;;;21.63;8.50;;;;;;;-145.18;100.00;60484.78;4997762;28;20080;-69
2021/12/05 11:01:40;;;;;;;21.47;8.07;;;;;;;-145.18;100.00;60484.78;5004859;28;20392;-70
2021/12/05 11:04:11;;;;;;;23.52;9.18;;;;;;;-145.18;100.00;60484.78;5007052;28;20056;-69
2021/12/05 11:06:41;;;;;;;24.85;9.02;;;;;;;-145.18;100.00;60484.78;5007814;28;20461;-70
2021/12/05 11:09:10;;;;;;;23.80;8.53;;;;;;;-145.18;100.00;60484.78;5008670;28;20037;-69
2021/12/05 11:11:36;;;;;;;30.13;9.80;;;;;;;-145.18;100.00;60484.78;5003605;28;20430;-69
2021/12/05 11:14:06;;;;;;;28.90;11.07;;;;;;;-145.18;100.00;60484.78;5008557;28;20417;-69
2021/12/05 11:16:43;;;;;;;27.23;10.13;;;;;;;-145.18;100.00;60484.78;5001943;28;20477;-69
2021/12/05 11:19:16;;;;;;;25.50;10.80;;;;;;;-145.18;100.00;60484.78;4994918;28;20482;-70
2021/12/05 11:21:49;;;;;;;20.53;9.30;;;;;;;-145.18;100.00;60484.78;5006116;28;20063;-69
2021/12/05 11:24:16;;;;;;;24.73;9.83;;;;;;;-145.18;100.00;60484.78;5005701;28;20033;-70
2021/12/05 11:26:59;;;;;;;21.83;7.37;;;;;;;-145.18;100.00;60484.78;5001956;28;20040;-69
2021/12/05 11:29:39;;;;;;;20.20;8.27;;;;;;;-145.18;100.00;60484.78;5007768;28;20825;-69
2021/12/05 11:32:10;;;;;;;18.77;7.27;;;;;;;-145.18;100.00;60484.78;5006056;28;20442;-69
2021/12/05 11:34:35;;;;;;;21.70;8.13;;;;;;;-145.18;100.00;60484.78;5006524;28;20714;-69
2021/12/05 11:37:01;;;;;;;23.50;8.17;;;;;;;-145.18;100.00;60484.78;5047337;28;20036;-69
2021/12/05 11:39:26;;;;;;;18.87;7.40;;;;;;;-145.18;100.00;60484.78;5050226;28;20024;-69
2021/12/05 11:41:52;;;;;;;26.13;10.77;;;;;;;-145.18;100.00;60484.78;5048329;28;20025;-69
2021/12/05 11:44:21;;;;;;;18.47;6.70;;;;;;;-145.18;100.00;60484.78;5055270;28;20090;-69
2021/12/05 11:46:47;;;;;;;21.10;7.50;;;;;;;-145.18;100.00;60484.78;5054223;28;20517;-69
2021/12/05 11:49:23;;;;;;;23.63;8.53;;;;;;;-145.18;100.00;60484.78;5051015;28;20090;-69
2021/12/05 11:51:52;;;;;;;26.07;8.27;;;;;;;-145.18;100.00;60484.78;5053837;28;20079;-69
2021/12/05 11:54:25;;;;;;;24.77;8.43;;;;;;;-145.18;100.00;60484.78;5050766;28;20020;-69
2021/12/05 11:57:29;;;;;;;32.87;9.90;;;;;;;-145.18;100.00;60484.78;5050607;28;20040;-69
2021/12/05 12:00:03;;;;;;;29.30;10.00;;;;;;;-145.18;100.00;60484.78;4966285;28;20030;-69
2021/12/05 12:02:40;;;;;;;24.40;9.00;;;;;;;-145.18;100.00;60484.78;4968726;28;20608;-69
2021/12/05 12:05:13;;;;;;;20.07;8.23;;;;;;;-145.18;100.00;60484.78;4970328;28;20399;-69
2021/12/05 12:07:41;;;;;;;27.90;8.00;;;;;;;-145.18;100.00;60484.78;4946205;28;20296;-69
2021/12/05 12:10:16;;;;;;;20.93;8.47;;;;;;;-145.18;100.00;60484.78;4965362;28;20084;-69
2021/12/05 12:12:47;;;;;;;25.13;8.90;;;;;;;-145.18;100.00;60484.78;4967031;28;20031;-69
2021/12/05 12:15:15;;;;;;;20.98;8.80;;;;;;;-145.18;100.00;60484.78;4970297;28;20383;-69
2021/12/05 12:17:41;;;;;;;19.67;7.60;;;;;;;-145.18;100.00;60484.78;4967848;28;20042;-69
2021/12/05 12:20:11;;;;;;;20.10;6.77;;;;;;;-145.18;100.00;60484.78;4963471;28;20034;-69
2021/12/05 12:22:37;;;;;;;24.93;7.70;;;;;;;-145.18;100.00;60484.78;4964521;28;20038;-69
2021/12/05 12:25:08;;;;;;;22.20;7.53;;;;;;;-145.18;100.00;60484.78;4965084;28;20588;-69
2021/12/05 12:27:34;;;;;;;22.70;7.00;;;;;;;-145.18;100.00;60484.78;4964790;28;20077;-69
2021/12/05 12:30:04;;;;;;;28.23;8.83;;;;;;;-145.18;100.00;60484.78;4986896;28;20095;-69
2021/12/05 12:32:33;;;;;;;17.70;8.10;;;;;;;-145.18;100.00;60484.78;5049230;28;20047;-69
2021/12/05 12:35:07;;;;;;;22.20;7.80;;;;;;;-145.18;100.00;60484.78;5053227;28;20028;-69
2021/12/05 12:37:55;;;;;;;20.63;7.47;;;;;;;-145.18;100.00;60484.78;5052873;28;20032;-69
2021/12/05 12:40:48;;;;;;;24.63;7.83;;;;;;;-145.18;100.00;60484.78;5052702;28;20195;-69
2021/12/05 12:43:38;;;;;;;16.43;7.03;;;;;;;-145.18;100.00;60484.78;5043128;28;20126;-69
2021/12/05 12:46:44;;;;;;;21.03;7.13;;;;;;;-145.18;100.00;60484.78;5053091;28;20505;-69
2021/12/05 12:49:15;;;;;;;23.83;8.33;;;;;;;-145.18;100.00;60484.78;5051682;28;20052;-69
2021/12/05 12:51:51;;;;;;;21.20;7.35;;;;;;;-145.18;100.00;60484.78;5048871;28;20046;-69
2021/12/05 12:54:23;;;;;;;18.77;7.73;;;;;;;-145.18;100.00;60484.78;5049425;28;20119;-69
2021/12/05 12:57:02;;;;;;;20.38;7.70;;;;;;;-145.18;100.00;60484.78;5052761;28;20451;-69
2021/12/05 12:59:32;;;;;;;25.60;6.87;;;;;;;-145.18;100.00;60484.78;5053130;28;20034;-69
2021/12/05 13:10:43;;;;;;;17.03;6.17;;;;;;;-145.18;100.00;60484.78;4989026;28;20141;-69
2021/12/05 13:13:18;;;;;;;17.57;6.93;;;;;;;-145.18;100.00;60484.78;4980313;28;20116;-69
2021/12/05 13:15:49;;;;;;;18.87;6.60;;;;;;;-145.18;100.00;60484.78;4983167;28;20049;-69
2021/12/05 13:18:15;;;;;;;24.70;6.97;;;;;;;-145.18;100.00;60484.78;4984438;28;20038;-69
2021/12/05 13:20:40;;;;;;;23.03;6.43;;;;;;;-145.18;100.00;60484.78;4985537;28;20204;-69
2021/12/05 13:23:08;;;;;;;14.63;6.47;;;;;;;-145.18;100.00;60484.78;4977499;28;20046;-69
2021/12/05 13:26:08;;;;;;;28.63;7.27;;;;;;;-145.18;100.00;60484.78;4982072;28;20712;-69
2021/12/05 13:28:35;;;;;;;18.57;6.70;;;;;;;-145.18;100.00;60484.78;4982930;28;20441;-69
2021/12/05 13:31:41;;;;;;;18.03;6.47;;;;;;;-145.18;100.00;60484.78;4982367;28;20130;-69
2021/12/05 13:34:23;;;;;;;19.57;8.57;;;;;;;-145.18;100.00;60484.78;4979833;28;20051;-69
2021/12/05 13:37:06;;;;;;;20.50;8.20;;;;;;;-145.18;100.00;60484.78;4980019;28;20042;-69
2021/12/05 13:39:34;;;;;;;26.63;9.13;;;;;;;-145.18;100.00;60484.78;4980774;28;20396;-69
2021/12/05 13:42:41;;;;;;;20.77;7.63;;;;;;;-145.18;100.00;60484.78;5017828;28;20051;-69
2021/12/05 13:45:16;;;;;;;25.17;7.77;;;;;;;-145.18;100.00;60484.78;5053001;28;20143;-69
2021/12/05 13:47:52;;;;;;;25.83;9.30;;;;;;;-145.18;100.00;60484.78;5053435;28;20291;-69
2021/12/05 13:50:18;;;;;;;20.77;7.50;;;;;;;-145.18;100.00;60484.78;5052267;28;20420;-69
2021/12/05 13:53:06;;;;;;;18.47;7.13;;;;;;;-145.18;100.00;60484.78;5052720;28;20032;-69
2021/12/05 13:55:52;;;;;;;18.23;6.80;;;;;;;-145.18;100.00;60484.78;5042949;28;20052;-68
2021/12/05 13:58:37;;;;;;;17.43;6.73;;;;;;;-145.18;100.00;60484.78;5052185;28;20039;-69
2021/12/05 14:01:34;;;;;;;23.17;7.37;;;;;;;-145.18;100.00;60484.78;5049820;28;20044;-69
2021/12/05 14:04:10;;;;;;;16.40;7.03;;;;;;;-145.18;100.00;60484.78;5050388;28;20560;-69
2021/12/05 14:06:41;;;;;;;23.43;7.70;;;;;;;-145.18;100.00;60484.78;5052759;28;20252;-69
2021/12/05 14:09:12;;;;;;;22.40;7.40;;;;;;;-145.18;100.00;60484.78;5052038;28;20032;-69
2021/12/05 14:11:57;;;;;;;22.57;7.80;;;;;;;-145.18;100.00;60484.78;5051040;28;20291;-69
2021/12/05 14:14:27;;;;;;;26.13;8.50;;;;;;;-145.18;100.00;60484.78;5049313;28;20087;-69
2021/12/05 14:16:55;;;;;;;26.43;8.60;;;;;;;-145.18;100.00;60484.78;5052875;28;20451;-69
2021/12/05 14:19:24;;;;;;;20.00;7.73;;;;;;;-145.18;100.00;60484.78;5049926;28;20029;-69
2021/12/05 14:21:53;;;;;;;26.70;8.77;;;;;;;-145.18;100.00;60484.78;5050041;28;20032;-69
2021/12/05 14:24:20;;;;;;;19.73;8.37;;;;;;;-145.18;100.00;60484.78;5052681;28;20060;-69
2021/12/05 14:26:49;;;;;;;27.80;8.90;;;;;;;-145.18;100.00;60484.78;5053080;28;20040;-69
2021/12/05 14:29:20;;;;;;;23.60;9.37;;;;;;;-145.18;100.00;60484.78;5053002;28;20377;-69
2021/12/05 14:32:03;;;;;;;18.33;8.15;;;;;;;-145.18;100.00;60484.78;5052786;28;20099;-69
2021/12/05 14:34:29;;;;;;;26.07;8.33;;;;;;;-145.18;100.00;60484.78;5052641;28;20071;-69
2021/12/05 14:37:02;;;;;;;22.70;9.57;;;;;;;-145.18;100.00;60484.78;5052643;28;20093;-69
2021/12/05 14:39:40;;;;;;;26.93;8.77;;;;;;;-145.18;100.00;60484.78;5050574;28;20040;-69
2021/12/05 14:42:15;;;;;;;28.73;8.70;;;;;;;-145.18;100.00;60484.78;5047551;28;20566;-69
2021/12/05 14:44:41;;;;;;;25.37;8.63;;;;;;;-145.18;100.00;60484.78;5051819;28;20054;-69
2021/12/05 14:47:12;;;;;;;24.20;8.13;;;;;;;-145.18;100.00;60484.78;5052054;28;20037;-69
2021/12/05 14:49:42;;;;;;;20.33;8.83;;;;;;;-145.18;100.00;60484.78;5051210;28;20551;-69
2021/12/05 14:52:11;;;;;;;27.53;9.43;;;;;;;-145.18;100.00;60484.78;5049587;28;20064;-69
2021/12/05 14:54:40;;;;;;;27.67;9.20;;;;;;;-145.18;100.00;60484.78;5053021;28;20473;-69
2021/12/05 14:57:11;;;;;;;31.50;9.60;;;;;;;-145.18;100.00;60484.78;5050021;28;20443;-69
2021/12/05 14:59:39;;;;;;;25.60;9.00;;;;;;;-145.18;100.00;60484.78;5051953;28;20033;-69
2021/12/05 15:02:06;;;;;;;31.97;10.13;;;;;;;-145.18;100.00;60484.78;5053775;28;20143;-69
2021/12/05 15:04:38;;;;;;;24.40;9.07;;;;;;;-145.18;100.00;60484.78;5052137;28;20044;-69
2021/12/05 15:07:04;;;;;;;40.28;9.68;;;;;;;-145.18;100.00;60484.78;5050660;28;20400;-69
2021/12/05 15:09:37;;;;;;;28.53;9.30;;;;;;;-145.18;100.00;60484.78;5051727;28;20032;-69
2021/12/05 15:12:07;;;;;;;27.60;9.80;;;;;;;-145.18;100.00;60484.78;5050986;28;20029;-69
2021/12/05 15:14:35;;;;;;;28.90;9.17;;;;;;;-145.18;100.00;60484.78;5052121;28;20688;-69
2021/12/05 15:17:16;;;;;;;25.57;9.97;;;;;;;-145.18;100.00;60484.78;5050850;28;20558;-69
2021/12/05 15:19:45;;;;;;;29.20;9.87;;;;;;;-145.18;100.00;60484.78;5055449;28;20067;-69
2021/12/05 15:22:12;;;;;;;31.90;10.37;;;;;;;-145.18;100.00;60484.78;5054693;28;20250;-69
2021/12/05 15:24:40;;;;;;;31.90;10.63;;;;;;;-145.18;100.00;60484.78;5054712;28;20120;-69
2021/12/05 15:27:15;;;;;;;28.40;10.30;;;;;;;-145.18;100.00;60484.78;5055708;28;20242;-69
2021/12/05 15:29:55;;;;;;;26.30;10.77;;;;;;;-145.18;100.00;60484.78;5054400;28;20028;-69
2021/12/05 15:32:27;;;;;;;35.03;11.17;;;;;;;-145.18;100.00;60484.78;5054749;28;20479;-69
2021/12/05 15:34:56;;;;;;;37.00;11.57;;;;;;;-145.18;100.00;60484.78;5055235;28;20274;-71
2021/12/05 15:37:22;;;;;;;32.80;11.33;;;;;;;-145.18;100.00;60484.78;5051292;28;20067;-72
2021/12/05 15:39:49;;;;;;;30.23;10.87;;;;;;;-145.18;100.00;60484.78;5055723;28;20286;-72
2021/12/05 15:42:20;;;;;;;44.30;11.63;;;;;;;-145.18;100.00;60484.78;5054749;28;20135;-72
2021/12/05 15:44:47;;;;;;;37.97;11.80;;;;;;;-145.18;100.00;60484.78;5055158;28;20032;-69
2021/12/05 15:47:20;;;;;;;31.97;11.80;;;;;;;-145.18;100.00;60484.78;5054019;28;20024;-69
2021/12/05 15:49:47;;;;;;;35.73;12.17;;;;;;;-145.18;100.00;60484.78;5049383;28;20310;-69
2021/12/05 15:52:13;;;;;;;35.30;12.23;;;;;;;-145.18;100.00;60484.78;5054172;28;21102;-69
2021/12/05 15:54:42;;;;;;;40.10;13.20;;;;;;;-145.18;100.00;60484.78;5055061;28;20263;-69
2021/12/05 15:57:27;;;;;;;33.53;12.27;;;;;;;-145.18;100.00;60484.78;5052663;28;20032;-69
2021/12/05 15:59:53;;;;;;;33.47;12.83;;;;;;;-145.18;100.00;60484.78;5054170;28;20484;-69
2021/12/05 16:02:19;;;;;;;32.00;12.50;;;;;;;-145.18;100.00;60484.78;5053336;28;20024;-69
2021/12/05 16:04:46;;;;;;;31.77;12.40;;;;;;;-145.18;100.00;60484.78;5053993;28;20053;-69
2021/12/05 16:07:12;;;;;;;34.53;11.93;;;;;;;-145.18;100.00;60484.78;5054798;28;20295;-69
2021/12/05 16:09:41;;;;;;;38.13;14.43;;;;;;;-145.18;100.00;60484.78;5055327;28;20028;-69
2021/12/05 16:12:14;;;;;;;37.60;13.90;;;;;;;-145.18;100.00;60484.78;5053440;28;20551;-69
2021/12/05 16:14:44;;;;;;;37.67;13.23;;;;;;;-145.18;100.00;60484.78;5054801;28;20794;-69
2021/12/05 16:17:20;;;;;;;40.47;14.23;;;;;;;-145.18;100.00;60484.78;5054753;28;20329;-69
2021/12/05 16:20:06;;;;;;;34.50;13.17;;;;;;;-145.18;100.00;60484.78;5054926;28;20032;-69
2021/12/05 16:22:31;;;;;;;32.97;11.83;;;;;;;-145.18;100.00;60484.78;5052415;28;20758;-69
2021/12/05 16:24:56;;;;;;;36.77;13.17;;;;;;;-145.18;100.00;60484.78;5053696;28;20524;-69
2021/12/05 16:27:22;;;;;;;43.30;15.47;;;;;;;-145.18;100.00;60484.78;5053411;28;20188;-69
2021/12/05 16:29:47;;;;;;;38.83;14.73;;;;;;;-145.18;100.00;60484.78;5053409;28;20420;-69
2021/12/05 16:32:13;;;;;;;41.77;14.17;;;;;;;-145.18;100.00;60484.78;5053154;28;20089;-69
2021/12/05 16:34:42;;;;;;;35.67;12.60;;;;;;;-145.18;100.00;60484.78;5054322;28;20466;-69
2021/12/05 16:37:10;;;;;;;36.13;12.00;;;;;;;-145.18;100.00;60484.78;5051345;28;20122;-69
2021/12/05 16:39:43;;;;;;;31.30;12.57;;;;;;;-145.18;100.00;60484.78;5054342;28;20028;-69
2021/12/05 16:42:12;;;;;;;42.07;13.33;;;;;;;-145.18;100.00;60484.78;5049802;28;20378;-69
2021/12/05 16:44:40;;;;;;;35.27;13.93;;;;;;;-145.18;100.00;60484.78;5054439;28;20802;-69